Time;durP1;ratioP1;P1;durP2;ratioP2;P2;SDS_P1;SDS_P2;PMS_P1;PMS_P2;Temp;Humidity;BMP_temperature;BMP_pressure;BME280_temperature;BME280_humidity;BME280_pressure;Samples;Min_cycle;Max_cycle;Signal;HPM_P1;HPM_P2
2021/09/16 00:02:15;;;;;;;13.23;9.93;;;;;;;23.00;100.00;96203.38;5002278;28;20084;-62
2021/09/16 00:04:43;;;;;;;15.77;10.40;;;;;;;22.87;100.00;96197.09;5009754;28;20101;-62
2021/09/16 00:07:11;;;;;;;13.90;9.93;;;;;;;23.25;100.00;96203.19;5015176;28;20078;-63
2021/09/16 00:09:40;;;;;;;12.52;10.00;;;;;;;23.16;100.00;96202.72;5004938;28;20073;-62
2021/09/16 00:12:10;;;;;;;12.40;9.98;;;;;;;22.79;100.00;96210.03;5000992;28;20158;-62
2021/09/16 00:14:38;;;;;;;13.82;10.55;;;;;;;23.11;100.00;96207.94;5001409;28;20646;-61
2021/09/16 00:17:06;;;;;;;14.43;9.57;;;;;;;23.25;100.00;96204.00;5003181;28;20070;-61
2021/09/16 00:19:35;;;;;;;12.88;9.60;;;;;;;23.05;100.00;96201.59;5004937;28;20084;-62
2021/09/16 00:22:04;;;;;;;14.90;10.25;;;;;;;22.93;100.00;96206.97;5005919;28;20085;-62
2021/09/16 00:24:32;;;;;;;14.07;9.80;;;;;;;23.25;100.00;96211.25;5006778;28;20080;-63
2021/09/16 00:27:01;;;;;;;13.20;9.68;;;;;;;23.34;100.00;96216.09;5000472;28;20066;-62
2021/09/16 00:29:30;;;;;;;12.25;9.63;;;;;;;23.52;100.00;96217.88;5000154;28;20073;-62
2021/09/16 00:31:59;;;;;;;11.35;9.20;;;;;;;23.44;100.00;96219.03;5005124;28;20096;-62
2021/09/16 00:34:27;;;;;;;14.73;9.27;;;;;;;23.36;100.00;96213.97;5004761;28;20089;-62
2021/09/16 00:36:56;;;;;;;12.90;8.63;;;;;;;22.74;100.00;96211.53;5006689;28;20070;-63
2021/09/16 00:39:24;;;;;;;11.85;8.70;;;;;;;23.22;100.00;96218.72;5004173;28;20069;-62
2021/09/16 00:41:52;;;;;;;12.60;7.97;;;;;;;22.98;100.00;96208.97;5003288;28;20073;-63
2021/09/16 00:44:21;;;;;;;11.77;7.82;;;;;;;23.31;100.00;96210.34;5005189;28;20076;-62
2021/09/16 00:46:51;;;;;;;11.80;7.97;;;;;;;23.50;100.00;96205.69;5005356;28;20441;-62
2021/09/16 00:49:19;;;;;;;12.13;7.85;;;;;;;23.55;100.00;96200.44;5008457;28;20069;-63
2021/09/16 00:51:48;;;;;;;10.70;7.45;;;;;;;23.10;100.00;96207.13;5005483;28;20089;-64
2021/09/16 00:54:17;;;;;;;11.18;7.57;;;;;;;23.80;100.00;96186.78;5007959;28;20449;-61
2021/09/16 00:56:48;;;;;;;13.68;7.00;;;;;;;24.02;100.00;96184.28;5007111;28;20066;-62
2021/09/16 00:59:19;;;;;;;10.05;7.30;;;;;;;24.16;100.00;96185.69;4994905;28;20078;-58
2021/09/16 01:01:48;;;;;;;9.23;7.32;;;;;;;24.11;100.00;96182.88;5004750;28;20512;-62
2021/09/16 01:04:18;;;;;;;10.85;7.68;;;;;;;23.97;100.00;96173.41;5005796;28;20073;-61
2021/09/16 01:06:47;;;;;;;11.55;7.45;;;;;;;24.31;100.00;96177.09;5007573;28;20104;-62
2021/09/16 01:09:16;;;;;;;11.48;7.35;;;;;;;24.38;100.00;96177.78;5000098;28;20524;-61
2021/09/16 01:11:44;;;;;;;11.57;7.32;;;;;;;24.39;100.00;96177.53;5004421;28;20073;-60
2021/09/16 01:14:21;;;;;;;8.98;7.30;;;;;;;24.40;100.00;96183.78;4999808;28;20065;-62
2021/09/16 01:16:50;;;;;;;10.30;7.05;;;;;;;24.08;100.00;96188.72;5005030;28;20081;-63
2021/09/16 01:19:21;;;;;;;9.77;7.40;;;;;;;23.98;100.00;96197.41;5006517;28;20073;-62
2021/09/16 01:21:50;;;;;;;11.38;7.60;;;;;;;23.95;100.00;96194.38;5004426;28;20073;-63
2021/09/16 01:24:20;;;;;;;8.88;7.35;;;;;;;23.79;100.00;96198.59;5002015;28;20563;-62
2021/09/16 01:26:48;;;;;;;8.40;6.80;;;;;;;23.53;100.00;96197.16;4999097;28;20076;-62
2021/09/16 01:29:17;;;;;;;8.98;6.50;;;;;;;23.96;100.00;96194.16;5001832;28;20074;-62
2021/09/16 01:31:47;;;;;;;8.18;7.05;;;;;;;23.71;100.00;96198.94;5004510;28;21135;-61
2021/09/16 01:34:17;;;;;;;10.65;7.20;;;;;;;23.48;100.00;96208.63;5006158;28;20089;-62
2021/09/16 01:36:49;;;;;;;10.15;6.70;;;;;;;23.39;100.00;96215.38;5002373;28;20524;-63
2021/09/16 01:39:18;;;;;;;9.88;6.55;;;;;;;23.35;100.00;96217.72;5003978;28;20183;-62
2021/09/16 01:41:48;;;;;;;8.10;7.13;;;;;;;23.60;100.00;96212.13;4996338;28;20077;-62
2021/09/16 01:44:16;;;;;;;13.98;6.40;;;;;;;23.40;100.00;96209.78;5006712;28;20070;-62
2021/09/16 01:46:45;;;;;;;11.55;7.00;;;;;;;23.58;100.00;96208.03;5004486;28;20491;-62
2021/09/16 01:49:14;;;;;;;7.25;6.45;;;;;;;23.37;100.00;96209.44;5008808;28;20105;-62
2021/09/16 01:51:42;;;;;;;10.45;6.70;;;;;;;23.50;100.00;96205.69;5005242;28;20077;-59
2021/09/16 01:54:11;;;;;;;10.07;6.30;;;;;;;23.31;100.00;96200.41;5008420;28;20069;-62
2021/09/16 01:56:39;;;;;;;12.05;7.13;;;;;;;23.29;100.00;96197.09;5005530;28;20112;-61
2021/09/16 01:59:09;;;;;;;12.15;6.88;;;;;;;23.50;100.00;96192.22;5008585;28;20476;-64
2021/09/16 02:01:37;;;;;;;12.75;6.90;;;;;;;23.51;100.00;96183.94;5007510;28;20535;-61
2021/09/16 02:04:06;;;;;;;10.40;7.13;;;;;;;23.41;100.00;96187.19;5014176;28;20080;-62
2021/09/16 02:06:34;;;;;;;10.30;7.10;;;;;;;23.52;100.00;96182.88;5004749;28;20069;-61
2021/09/16 02:09:03;;;;;;;9.73;6.70;;;;;;;23.54;100.00;96185.34;5003176;28;20467;-62
2021/09/16 02:11:31;;;;;;;10.68;7.15;;;;;;;23.40;100.00;96172.09;5007697;28;20072;-60
2021/09/16 02:14:00;;;;;;;11.38;6.90;;;;;;;23.42;100.00;96179.94;5004487;28;20084;-61
2021/09/16 02:16:30;;;;;;;11.32;7.40;;;;;;;22.79;100.00;96185.84;5008216;28;20065;-60
2021/09/16 02:18:59;;;;;;;11.52;7.78;;;;;;;23.25;100.00;96182.47;5021790;28;20078;-59
2021/09/16 02:21:27;;;;;;;14.45;7.00;;;;;;;23.18;100.00;96182.59;5002239;28;20070;-61
2021/09/16 02:23:55;;;;;;;12.05;7.10;;;;;;;22.31;100.00;96189.38;5016822;28;20112;-61
2021/09/16 02:26:24;;;;;;;11.50;6.68;;;;;;;22.96;100.00;96182.31;5000464;28;20049;-59
2021/09/16 02:28:53;;;;;;;12.15;7.00;;;;;;;22.40;100.00;96188.00;5005239;28;20058;-61
2021/09/16 02:31:21;;;;;;;9.98;6.90;;;;;;;22.82;100.00;96180.84;5007480;28;20068;-60
2021/09/16 02:33:51;;;;;;;10.52;6.45;;;;;;;22.82;100.00;96180.84;5008061;28;20034;-60
2021/09/16 02:36:20;;;;;;;9.70;6.50;;;;;;;22.34;100.00;96178.97;5006441;28;20096;-58
2021/09/16 02:38:48;;;;;;;7.45;6.20;;;;;;;22.47;100.00;96180.66;5007336;28;20072;-60
2021/09/16 02:41:17;;;;;;;8.70;6.50;;;;;;;23.02;100.00;96172.50;5006620;28;20058;-58
2021/09/16 02:43:45;;;;;;;9.02;6.38;;;;;;;23.06;100.00;96178.25;5007182;28;20487;-60
2021/09/16 02:46:14;;;;;;;10.88;5.90;;;;;;;23.01;100.00;96176.22;5008540;28;20491;-61
2021/09/16 02:48:42;;;;;;;9.93;5.63;;;;;;;22.93;100.00;96165.81;5004269;28;20069;-60
2021/09/16 02:51:12;;;;;;;7.15;5.72;;;;;;;22.12;100.00;96170.53;5007942;28;20069;-60
2021/09/16 02:53:41;;;;;;;9.52;5.93;;;;;;;22.34;100.00;96175.47;5006722;28;20065;-61
2021/09/16 02:56:09;;;;;;;9.50;6.22;;;;;;;22.44;100.00;96175.78;5007247;28;20065;-61
2021/09/16 02:58:38;;;;;;;9.48;6.28;;;;;;;22.74;100.00;96181.13;5020032;28;20088;-60
2021/09/16 03:01:06;;;;;;;9.43;6.40;;;;;;;22.77;100.00;96182.56;5008164;28;20074;-59
2021/09/16 03:03:35;;;;;;;11.60;6.15;;;;;;;22.54;100.00;96189.50;5006052;28;20084;-60
2021/09/16 03:06:03;;;;;;;7.72;5.90;;;;;;;22.45;100.00;96188.16;5005922;28;20519;-61
2021/09/16 03:08:33;;;;;;;11.45;5.85;;;;;;;22.25;100.00;96183.81;5005618;28;20061;-60
2021/09/16 03:11:01;;;;;;;6.07;5.30;;;;;;;22.32;100.00;96185.63;5011664;28;20065;-58
2021/09/16 03:13:30;;;;;;;8.23;5.90;;;;;;;22.31;100.00;96179.44;5006676;28;20511;-58
2021/09/16 03:15:58;;;;;;;8.75;5.40;;;;;;;21.72;100.00;96172.84;5013164;28;20096;-58
2021/09/16 03:18:27;;;;;;;9.52;5.93;;;;;;;22.16;100.00;96171.78;5005097;28;20085;-59
2021/09/16 03:20:55;;;;;;;7.45;5.53;;;;;;;22.30;100.00;96172.44;5008126;28;20072;-58
2021/09/16 03:23:24;;;;;;;12.43;6.03;;;;;;;22.29;100.00;96173.44;5009932;28;20146;-61
2021/09/16 03:25:53;;;;;;;10.40;6.18;;;;;;;22.43;100.00;96172.22;5009430;28;20124;-61
2021/09/16 03:28:22;;;;;;;9.93;5.55;;;;;;;22.44;100.00;96168.53;5012809;28;20440;-60
2021/09/16 03:30:51;;;;;;;11.45;6.55;;;;;;;22.54;100.00;96169.81;5009222;28;20312;-60
2021/09/16 03:33:20;;;;;;;10.82;5.93;;;;;;;22.54;100.00;96167.16;5041753;28;20042;-59
2021/09/16 03:35:48;;;;;;;10.57;5.47;;;;;;;22.24;100.00;96160.72;5008683;28;20080;-60
2021/09/16 03:38:17;;;;;;;9.40;5.93;;;;;;;22.40;100.00;96161.13;5006092;28;20066;-61
2021/09/16 03:40:45;;;;;;;7.53;5.45;;;;;;;22.81;100.00;96164.91;4997948;28;20480;-61
2021/09/16 03:43:15;;;;;;;9.25;5.68;;;;;;;22.75;100.00;96174.72;5009458;28;20149;-54
2021/09/16 03:45:43;;;;;;;11.80;5.63;;;;;;;22.90;100.00;96177.00;5005801;28;20099;-61
2021/09/16 03:48:12;;;;;;;9.80;5.45;;;;;;;22.54;100.00;96181.44;5004254;28;20069;-61
2021/09/16 03:50:40;;;;;;;9.63;5.90;;;;;;;22.74;100.00;96184.63;4997931;28;20077;-61
2021/09/16 03:53:09;;;;;;;12.82;5.95;;;;;;;22.50;100.00;96177.53;5007246;28;20072;-59
2021/09/16 03:55:37;;;;;;;10.00;6.00;;;;;;;22.39;100.00;96175.59;5006193;28;20085;-61
2021/09/16 03:58:06;;;;;;;10.60;6.30;;;;;;;22.37;100.00;96173.16;5007269;28;20085;-61
2021/09/16 04:00:36;;;;;;;9.00;5.82;;;;;;;22.80;100.00;96158.72;5009277;28;20077;-61
2021/09/16 04:03:08;;;;;;;10.25;5.85;;;;;;;22.96;100.00;96154.59;5006592;28;20074;-60
2021/09/16 04:05:36;;;;;;;8.13;5.85;;;;;;;22.73;100.00;96156.13;5004699;28;20547;-61
2021/09/16 04:08:05;;;;;;;6.63;5.50;;;;;;;23.02;100.00;96164.44;5001636;28;20069;-61
2021/09/16 04:10:34;;;;;;;15.23;6.18;;;;;;;22.48;100.00;96175.09;5003407;28;20088;-61
2021/09/16 04:13:02;;;;;;;11.85;5.95;;;;;;;22.78;100.00;96173.44;5008054;28;20104;-60
2021/09/16 04:15:31;;;;;;;12.30;6.25;;;;;;;22.33;100.00;96177.31;5002225;28;20069;-61
2021/09/16 04:18:00;;;;;;;10.30;5.95;;;;;;;23.08;100.00;96176.94;5001891;28;20065;-60
2021/09/16 04:20:29;;;;;;;7.57;5.70;;;;;;;22.82;100.00;96169.25;5005581;28;20070;-61
2021/09/16 04:22:57;;;;;;;10.88;5.63;;;;;;;23.11;100.00;96160.34;5004357;28;20072;-62
2021/09/16 04:25:26;;;;;;;11.80;5.32;;;;;;;22.81;100.00;96162.22;5005851;28;20070;-55
2021/09/16 04:27:55;;;;;;;12.32;6.15;;;;;;;22.75;100.00;96159.41;5006838;28;20520;-61
2021/09/16 04:30:24;;;;;;;14.57;5.40;;;;;;;23.10;100.00;96152.53;5005191;28;20073;-57
2021/09/16 04:32:52;;;;;;;9.20;5.35;;;;;;;22.77;100.00;96161.88;5000334;28;20079;-61
2021/09/16 04:35:23;;;;;;;10.27;5.50;;;;;;;23.06;100.00;96160.25;5005146;28;20081;-57
2021/09/16 04:37:51;;;;;;;8.88;5.70;;;;;;;22.28;100.00;96158.38;5003763;28;20066;-61
2021/09/16 04:40:20;;;;;;;11.75;5.75;;;;;;;22.43;100.00;96157.97;5007241;28;20082;-61
2021/09/16 04:42:49;;;;;;;15.70;5.32;;;;;;;22.71;100.00;96160.09;5000550;28;20070;-58
2021/09/16 04:45:17;;;;;;;12.40;6.03;;;;;;;22.71;100.00;96157.41;5006895;28;20072;-60
2021/09/16 04:47:45;;;;;;;12.27;5.38;;;;;;;23.04;100.00;96154.25;5004022;28;20062;-60
2021/09/16 04:50:14;;;;;;;11.32;5.40;;;;;;;23.05;100.00;96158.56;4999960;28;20049;-61
2021/09/16 04:52:44;;;;;;;7.90;5.15;;;;;;;22.97;100.00;96161.59;5005481;28;20077;-61
2021/09/16 04:55:13;;;;;;;11.35;5.90;;;;;;;22.97;100.00;96167.81;5007689;28;20073;-61
2021/09/16 04:57:41;;;;;;;11.27;5.85;;;;;;;22.79;100.00;96164.34;5003894;28;20069;-61
2021/09/16 05:00:11;;;;;;;13.00;5.57;;;;;;;23.11;100.00;96159.53;5000195;28;20057;-61
2021/09/16 05:02:39;;;;;;;10.15;5.45;;;;;;;23.13;100.00;96165.50;5000028;28;20076;-59
2021/09/16 05:05:09;;;;;;;9.70;5.38;;;;;;;22.98;100.00;96165.94;5002234;28;20077;-61
2021/09/16 05:07:37;;;;;;;12.03;5.70;;;;;;;23.19;100.00;96162.72;5004608;28;20154;-61
2021/09/16 05:10:08;;;;;;;9.45;6.03;;;;;;;23.25;100.00;96162.84;5003821;28;20883;-61
2021/09/16 05:12:37;;;;;;;10.88;5.63;;;;;;;23.38;100.00;96160.75;5004190;28;20138;-59
2021/09/16 05:15:09;;;;;;;11.40;5.72;;;;;;;23.01;100.00;96170.84;4999770;28;20461;-55
2021/09/16 05:17:38;;;;;;;12.52;5.45;;;;;;;23.29;100.00;96175.59;5002227;28;20069;-61
2021/09/16 05:20:07;;;;;;;9.30;5.07;;;;;;;23.18;100.00;96174.50;5001136;28;20386;-59
2021/09/16 05:22:36;;;;;;;10.98;5.50;;;;;;;23.05;100.00;96169.34;5005601;28;20100;-60
2021/09/16 05:25:05;;;;;;;15.55;6.07;;;;;;;23.11;100.00;96172.97;5007264;28;20081;-61
2021/09/16 05:27:35;;;;;;;10.93;5.85;;;;;;;23.00;100.00;96174.59;5007915;28;20479;-62
2021/09/16 05:30:04;;;;;;;8.13;5.50;;;;;;;23.13;100.00;96178.97;5008370;28;20073;-60
2021/09/16 05:32:33;;;;;;;11.73;5.47;;;;;;;23.03;100.00;96173.31;5007538;28;20073;-60
2021/09/16 05:35:01;;;;;;;11.43;5.55;;;;;;;22.67;100.00;96172.34;5008022;28;20070;-61
2021/09/16 05:37:30;;;;;;;11.80;5.82;;;;;;;22.87;100.00;96178.25;5009939;28;20081;-61
2021/09/16 05:39:59;;;;;;;7.70;5.25;;;;;;;22.68;100.00;96176.69;5003934;28;20082;-59
2021/09/16 05:42:27;;;;;;;11.45;5.00;;;;;;;22.86;100.00;96183.88;5008428;28;20461;-62
2021/09/16 05:44:57;;;;;;;9.75;5.00;;;;;;;22.90;100.00;96187.75;5008122;28;20065;-61
2021/09/16 05:47:26;;;;;;;10.18;5.78;;;;;;;23.39;100.00;96188.47;5008040;28;20073;-56
2021/09/16 05:49:54;;;;;;;9.68;5.63;;;;;;;23.13;100.00;96192.41;5005414;28;20077;-61
2021/09/16 05:52:22;;;;;;;10.65;5.90;;;;;;;23.49;100.00;96196.78;5005885;28;20077;-61
2021/09/16 05:54:51;;;;;;;9.18;5.57;;;;;;;23.18;100.00;96190.66;5004846;28;20425;-60
2021/09/16 05:57:19;;;;;;;10.73;5.50;;;;;;;22.83;100.00;96192.41;5013678;28;20065;-53
2021/09/16 05:59:48;;;;;;;12.55;5.93;;;;;;;22.80;100.00;96198.22;5004941;28;20543;-62
2021/09/16 06:02:19;;;;;;;9.23;5.15;;;;;;;22.75;100.00;96193.56;5003423;28;20473;-61
2021/09/16 06:04:47;;;;;;;7.30;5.30;;;;;;;22.45;100.00;96193.53;5008658;28;20072;-60
2021/09/16 06:07:16;;;;;;;8.32;5.28;;;;;;;22.62;100.00;96207.16;5005831;28;20528;-60
2021/09/16 06:09:44;;;;;;;10.93;5.68;;;;;;;22.62;100.00;96209.84;5006705;28;20091;-59
2021/09/16 06:12:13;;;;;;;12.15;5.63;;;;;;;22.88;100.00;96208.66;5002504;28;20065;-61
2021/09/16 06:14:41;;;;;;;7.20;5.22;;;;;;;23.28;100.00;96208.94;5006636;28;20501;-61
2021/09/16 06:17:09;;;;;;;10.90;5.57;;;;;;;22.91;100.00;96205.50;5004532;28;20080;-59
2021/09/16 06:19:39;;;;;;;8.85;5.57;;;;;;;23.23;100.00;96206.13;5008017;28;20081;-61
2021/09/16 06:22:08;;;;;;;10.15;5.78;;;;;;;23.52;100.00;96203.59;5005080;28;20088;-61
2021/09/16 06:24:36;;;;;;;9.20;6.18;;;;;;;23.38;100.00;96205.69;5008213;28;20078;-61
2021/09/16 06:27:05;;;;;;;8.00;5.20;;;;;;;23.35;100.00;96206.94;5003835;28;20651;-61
2021/09/16 06:29:33;;;;;;;9.30;5.30;;;;;;;24.00;100.00;96197.19;5007726;28;20113;-61
2021/09/16 06:32:02;;;;;;;7.00;5.30;;;;;;;23.90;100.00;96203.97;5005210;28;20069;-62
2021/09/16 06:34:31;;;;;;;10.95;5.57;;;;;;;23.96;100.00;96196.84;5006511;28;20073;-60
2021/09/16 06:37:01;;;;;;;8.02;4.88;;;;;;;24.01;100.00;96201.50;5009619;28;20084;-61
2021/09/16 06:39:30;;;;;;;11.23;5.57;;;;;;;24.18;100.00;96202.44;5003085;28;20084;-61
2021/09/16 06:41:58;;;;;;;10.07;5.43;;;;;;;23.75;100.00;96211.72;5006441;28;20082;-61
2021/09/16 06:44:26;;;;;;;11.10;5.30;;;;;;;23.86;100.00;96202.00;5007981;28;20084;-60
2021/09/16 06:46:55;;;;;;;9.32;5.60;;;;;;;24.16;100.00;96209.94;5005799;28;20542;-61
2021/09/16 06:49:23;;;;;;;8.60;5.20;;;;;;;24.42;100.00;96208.63;5006351;28;20217;-61
2021/09/16 06:51:52;;;;;;;8.60;5.78;;;;;;;24.03;100.00;96204.78;5003665;28;20370;-61
2021/09/16 06:54:22;;;;;;;8.05;5.65;;;;;;;24.43;100.00;96202.16;5002247;28;20061;-61
2021/09/16 06:56:50;;;;;;;7.65;6.35;;;;;;;23.98;100.00;96200.09;5008964;28;20452;-61
2021/09/16 06:59:19;;;;;;;10.88;5.88;;;;;;;24.57;100.00;96195.47;5006475;28;20080;-60
2021/09/16 07:01:47;;;;;;;8.07;5.80;;;;;;;25.26;100.00;96183.78;5005341;28;20065;-59
2021/09/16 07:04:16;;;;;;;9.73;5.45;;;;;;;25.69;100.00;96191.22;5005374;28;20110;-61
2021/09/16 07:06:45;;;;;;;9.18;5.90;;;;;;;25.29;100.00;96183.28;5006070;28;20070;-62
2021/09/16 07:09:13;;;;;;;8.65;5.55;;;;;;;26.04;100.00;96182.84;5005482;28;20069;-61
2021/09/16 07:11:43;;;;;;;9.25;5.30;;;;;;;25.47;100.00;96193.06;5005581;28;20547;-59
2021/09/16 07:14:11;;;;;;;7.65;5.57;;;;;;;25.68;100.00;96194.19;5004939;28;20099;-60
2021/09/16 07:16:40;;;;;;;7.78;5.40;;;;;;;25.72;100.00;96198.84;5006735;28;20086;-59
2021/09/16 07:19:08;;;;;;;12.85;5.88;;;;;;;24.98;100.00;96206.19;5004552;28;20092;-61
2021/09/16 07:21:36;;;;;;;11.60;5.82;;;;;;;24.62;100.00;96202.81;5001143;28;20058;-61
2021/09/16 07:24:07;;;;;;;9.48;6.07;;;;;;;24.96;100.00;96206.44;5004265;28;20069;-61
2021/09/16 07:26:36;;;;;;;11.60;6.05;;;;;;;24.29;100.00;96201.56;5007787;28;20065;-59
2021/09/16 07:29:06;;;;;;;11.65;6.13;;;;;;;24.60;100.00;96211.16;5004121;28;20149;-59
2021/09/16 07:31:34;;;;;;;12.02;6.50;;;;;;;24.95;100.00;96214.75;5002135;28;20077;-62
2021/09/16 07:34:02;;;;;;;10.18;6.20;;;;;;;24.67;100.00;96212.88;5000791;28;20085;-58
2021/09/16 07:36:31;;;;;;;9.70;6.40;;;;;;;25.37;100.00;96215.28;5006327;28;20137;-62
2021/09/16 07:38:59;;;;;;;10.82;6.10;;;;;;;24.94;100.00;96218.53;5000852;28;20080;-59
2021/09/16 07:41:28;;;;;;;9.65;6.32;;;;;;;25.44;100.00;96234.84;5005498;28;20527;-61
2021/09/16 07:43:56;;;;;;;10.75;6.45;;;;;;;25.91;100.00;96231.84;5003707;28;20307;-60
2021/09/16 07:46:27;;;;;;;8.60;5.70;;;;;;;26.10;100.00;96232.38;5007090;28;20443;-62
2021/09/16 07:48:55;;;;;;;12.80;6.70;;;;;;;26.43;100.00;96231.50;4986624;28;21261;-61
2021/09/16 07:51:24;;;;;;;8.77;5.97;;;;;;;26.56;100.00;96218.69;4981971;28;20085;-61
2021/09/16 07:53:53;;;;;;;10.18;5.50;;;;;;;26.67;100.00;96223.13;4983431;28;20127;-62
2021/09/16 07:56:21;;;;;;;7.18;5.18;;;;;;;25.36;100.00;96224.44;4986590;28;20089;-60
2021/09/16 07:58:50;;;;;;;8.95;5.60;;;;;;;25.91;100.00;96223.75;4985634;28;20496;-61
2021/09/16 08:01:18;;;;;;;12.68;5.18;;;;;;;25.27;100.00;96226.72;4985618;28;20089;-58
2021/09/16 08:03:49;;;;;;;9.80;5.03;;;;;;;25.61;100.00;96220.53;4985719;28;20460;-60
2021/09/16 08:06:18;;;;;;;9.55;5.15;;;;;;;26.08;100.00;96212.88;4979601;28;20080;-56
2021/09/16 08:08:50;;;;;;;9.23;5.40;;;;;;;25.96;100.00;96214.91;4984298;28;20098;-59
2021/09/16 08:11:19;;;;;;;5.97;4.00;;;;;;;26.53;100.00;96220.00;5002023;28;20074;-61
2021/09/16 08:13:47;;;;;;;5.30;4.03;;;;;;;25.83;100.00;96217.94;4986553;28;20069;-60
2021/09/16 08:16:16;;;;;;;4.15;2.92;;;;;;;25.93;100.00;96209.97;4982459;28;20073;-59
2021/09/16 08:18:44;;;;;;;7.28;3.30;;;;;;;25.26;100.00;96216.19;4986649;28;20524;-58
2021/09/16 08:21:15;;;;;;;7.47;3.60;;;;;;;25.37;100.00;96219.88;4985130;28;20081;-59
2021/09/16 08:23:44;;;;;;;6.00;3.53;;;;;;;25.17;100.00;96223.84;4985238;28;20475;-58
2021/09/16 08:26:13;;;;;;;6.70;3.50;;;;;;;24.73;100.00;96220.84;4984152;28;20070;-60
2021/09/16 08:28:41;;;;;;;8.85;4.20;;;;;;;24.93;100.00;96219.59;4986365;28;20085;-58
2021/09/16 08:31:10;;;;;;;5.85;4.05;;;;;;;25.09;100.00;96216.94;4983932;28;20517;-59
2021/09/16 08:33:39;;;;;;;6.95;3.88;;;;;;;25.16;100.00;96222.22;4986287;28;20085;-61
2021/09/16 08:36:07;;;;;;;5.75;4.00;;;;;;;24.97;100.00;96221.56;4984545;28;20130;-60
2021/09/16 08:38:38;;;;;;;6.07;4.25;;;;;;;24.84;100.00;96221.84;4980765;28;20066;-57
2021/09/16 08:41:06;;;;;;;;;;;;;;;26.21;100.00;96225.22;4985755;28;20058;-59
2021/09/16 08:43:36;;;;;;;8.38;4.80;;;;;;;26.28;100.00;96228.56;4982387;28;20005;-58
2021/09/16 08:46:05;;;;;;;9.40;4.75;;;;;;;26.09;100.00;96230.75;4986737;28;20150;-60
2021/09/16 08:48:33;;;;;;;6.97;4.70;;;;;;;26.08;100.00;96225.59;4980491;28;20073;-60
2021/09/16 08:51:02;;;;;;;6.90;5.00;;;;;;;26.32;100.00;96234.31;4982477;28;20062;-61
2021/09/16 08:53:32;;;;;;;6.38;4.57;;;;;;;26.87;100.00;96225.28;4987414;28;20080;-59
2021/09/16 08:56:06;;;;;;;6.57;4.93;;;;;;;25.85;100.00;96234.72;4983612;28;20058;-61
2021/09/16 08:58:35;;;;;;;9.65;5.65;;;;;;;26.79;100.00;96226.53;4981633;28;20061;-59
2021/09/16 09:01:03;;;;;;;10.75;5.95;;;;;;;26.47;100.00;96227.25;4996788;28;20576;-57
2021/09/16 09:03:32;;;;;;;7.50;5.82;;;;;;;26.96;100.00;96224.56;4986539;28;20065;-61
2021/09/16 09:06:01;;;;;;;9.57;6.10;;;;;;;26.50;100.00;96225.94;4985028;28;20054;-61
2021/09/16 09:08:30;;;;;;;9.23;5.93;;;;;;;26.26;100.00;96218.03;4984497;28;20053;-61
2021/09/16 09:11:00;;;;;;;7.88;6.22;;;;;;;26.26;100.00;96223.44;4984738;28;20066;-58
2021/09/16 09:13:37;;;;;;;10.05;6.38;;;;;;;26.63;100.00;96217.41;4978789;28;20523;-59
2021/09/16 09:16:07;;;;;;;8.80;6.40;;;;;;;27.39;100.00;96214.75;4983975;28;20054;-58
2021/09/16 09:18:43;;;;;;;9.50;6.88;;;;;;;26.86;100.00;96219.03;4980436;28;20121;-58
2021/09/16 09:21:13;;;;;;;9.05;6.80;;;;;;;26.66;100.00;96208.00;4981747;28;20108;-59
2021/09/16 09:23:44;;;;;;;10.90;6.70;;;;;;;27.04;100.00;96207.03;4985077;28;20066;-61
2021/09/16 09:26:25;;;;;;;8.13;6.30;;;;;;;27.44;100.00;96214.78;4986972;28;20100;-59
2021/09/16 09:28:56;;;;;;;9.68;6.65;;;;;;;27.19;100.00;96218.06;4981073;28;20081;-60
2021/09/16 09:31:26;;;;;;;7.18;6.03;;;;;;;27.24;100.00;96214.59;4987024;28;20089;-61
2021/09/16 09:33:55;;;;;;;8.23;5.95;;;;;;;27.40;100.00;96212.84;4980000;28;20304;-59
2021/09/16 09:36:23;;;;;;;10.40;6.78;;;;;;;27.50;100.00;96218.34;4986185;28;20077;-61
2021/09/16 09:38:56;;;;;;;10.60;6.20;;;;;;;27.52;100.00;96208.06;4980808;28;20070;-59
2021/09/16 09:41:31;;;;;;;9.52;6.03;;;;;;;27.37;100.00;96218.78;4979218;28;20058;-59
2021/09/16 09:44:10;;;;;;;8.30;5.38;;;;;;;26.43;100.00;96217.16;4982271;28;20062;-61
2021/09/16 09:46:40;;;;;;;7.70;5.25;;;;;;;27.02;100.00;96211.91;4986228;28;20080;-60
2021/09/16 09:49:11;;;;;;;7.07;4.97;;;;;;;27.70;100.00;96209.56;4986969;28;20085;-60
2021/09/16 09:51:41;;;;;;;7.93;5.47;;;;;;;27.30;100.00;96208.16;4978078;28;20452;-61
2021/09/16 09:54:24;;;;;;;8.70;5.28;;;;;;;26.69;100.00;96202.88;4985358;28;20073;-61
2021/09/16 09:57:01;;;;;;;9.00;5.57;;;;;;;27.36;100.00;96209.03;4985033;28;20540;-59
2021/09/16 09:59:56;;;;;;;6.97;5.50;;;;;;;27.21;100.00;96204.28;4995101;28;20069;-60
2021/09/16 10:02:27;;;;;;;8.23;5.20;;;;;;;26.83;100.00;96199.78;4979393;28;20066;-61
2021/09/16 10:04:57;;;;;;;9.60;5.00;;;;;;;27.33;100.00;96199.53;4978946;28;20062;-59
2021/09/16 10:07:34;;;;;;;7.50;4.60;;;;;;;26.66;100.00;96189.88;4985534;28;20524;-59
2021/09/16 10:10:07;;;;;;;7.72;4.80;;;;;;;26.48;100.00;96192.91;4984220;28;20070;-61
2021/09/16 10:12:36;;;;;;;6.85;4.50;;;;;;;26.66;100.00;96184.47;4981732;28;20074;-59
2021/09/16 10:15:09;;;;;;;6.57;4.80;;;;;;;27.76;100.00;96186.06;4980623;28;20093;-60
2021/09/16 10:17:38;;;;;;;8.30;4.35;;;;;;;27.96;100.00;96183.50;4989675;28;20085;-61
2021/09/16 10:20:08;;;;;;;6.10;4.03;;;;;;;26.71;100.00;96189.94;4983044;28;20078;-60
2021/09/16 10:22:37;;;;;;;7.28;4.63;;;;;;;27.54;100.00;96183.44;4988696;28;20528;-61
2021/09/16 10:25:07;;;;;;;7.63;4.37;;;;;;;26.89;100.00;96188.78;5003487;28;20074;-59
2021/09/16 10:27:37;;;;;;;;;;;;;;;27.49;100.00;96181.50;4988673;28;20676;-61
2021/09/16 10:30:30;;;;;;;4.82;3.72;;;;;;;27.22;100.00;96195.09;4987905;28;19965;-62
2021/09/16 10:33:00;;;;;;;5.35;3.95;;;;;;;28.14;100.00;96188.47;4983516;28;20080;-59
2021/09/16 10:35:29;;;;;;;6.47;4.00;;;;;;;28.43;100.00;96188.13;4987458;28;20074;-60
2021/09/16 10:38:17;;;;;;;6.55;3.88;;;;;;;28.67;100.00;96185.75;4986605;28;20073;-61
2021/09/16 10:40:46;;;;;;;5.78;4.10;;;;;;;28.89;100.00;96187.44;4986196;28;20094;-59
2021/09/16 10:43:21;;;;;;;8.30;4.30;;;;;;;28.66;100.00;96188.72;4984128;28;20096;-62
2021/09/16 10:45:52;;;;;;;6.50;4.32;;;;;;;27.61;100.00;96189.44;4986195;28;20483;-60
2021/09/16 10:48:32;;;;;;;9.35;4.90;;;;;;;28.33;100.00;96182.59;4986243;28;20070;-60
2021/09/16 10:51:07;;;;;;;7.35;4.50;;;;;;;28.01;100.00;96188.97;4986682;28;20070;-59
2021/09/16 10:53:44;;;;;;;5.55;4.28;;;;;;;28.54;100.00;96189.78;4989728;28;20092;-57
2021/09/16 10:56:41;;;;;;;7.45;4.50;;;;;;;28.62;100.00;96174.88;4984044;28;20062;-60
2021/09/16 10:59:09;;;;;;;6.63;4.80;;;;;;;29.08;96.54;96178.56;4987321;28;20074;-60
2021/09/16 11:01:59;;;;;;;9.20;5.00;;;;;;;27.62;100.00;96181.06;4986331;28;20169;-61
2021/09/16 11:05:07;;;;;;;8.02;4.75;;;;;;;27.26;100.00;96176.44;4981699;28;20078;-60
2021/09/16 11:07:55;;;;;;;9.15;4.85;;;;;;;27.85;100.00;96181.78;4986480;28;20093;-59
2021/09/16 11:10:52;;;;;;;8.75;4.82;;;;;;;27.01;100.00;96176.97;4990731;28;20097;-61
2021/09/16 11:13:42;;;;;;;8.15;4.63;;;;;;;27.66;100.00;96171.31;4981581;28;21169;-60
2021/09/16 11:16:11;;;;;;;7.93;4.90;;;;;;;26.45;100.00;96177.16;4984305;28;20092;-60
2021/09/16 11:18:46;;;;;;;10.57;5.10;;;;;;;26.81;100.00;96170.31;4979866;28;20081;-60
2021/09/16 11:21:14;;;;;;;8.25;5.10;;;;;;;27.00;100.00;96168.03;4987003;28;20093;-59
2021/09/16 11:23:45;;;;;;;10.65;4.90;;;;;;;27.01;100.00;96171.56;4987147;28;20151;-61
2021/09/16 11:26:15;;;;;;;8.52;4.95;;;;;;;26.06;100.00;96171.81;4985555;28;20630;-60
2021/09/16 11:28:44;;;;;;;9.88;5.20;;;;;;;26.23;100.00;96167.16;4980936;28;20503;-60
2021/09/16 11:31:18;;;;;;;9.30;5.20;;;;;;;26.20;100.00;96167.66;4990238;28;20078;-59
2021/09/16 11:33:48;;;;;;;9.35;5.18;;;;;;;26.26;100.00;96168.56;4984968;28;20069;-61
2021/09/16 11:36:17;;;;;;;10.02;4.97;;;;;;;26.58;100.00;96176.81;4981294;28;20066;-59